sensor_id;sensor_type;location;lat;lon;timestamp;P1;durP1;ratioP1;P2;durP2;ratioP2
32026;SDS011;18543;50.848;4.596;2022-11-15T00:00:51;5.32;;;4.82;;
32026;SDS011;18543;50.848;4.596;2022-11-15T00:03:25;7.30;;;5.37;;
32026;SDS011;18543;50.848;4.596;2022-11-15T00:05:53;6.20;;;5.60;;
32026;SDS011;18543;50.848;4.596;2022-11-15T00:08:20;6.18;;;5.43;;
32026;SDS011;18543;50.848;4.596;2022-11-15T00:10:57;6.50;;;5.60;;
32026;SDS011;18543;50.848;4.596;2022-11-15T00:13:25;6.30;;;5.65;;
32026;SDS011;18543;50.848;4.596;2022-11-15T00:15:52;5.77;;;5.17;;
32026;SDS011;18543;50.848;4.596;2022-11-15T00:18:22;5.63;;;5.05;;
32026;SDS011;18543;50.848;4.596;2022-11-15T00:20:49;5.93;;;5.15;;
32026;SDS011;18543;50.848;4.596;2022-11-15T00:23:15;7.03;;;5.63;;
32026;SDS011;18543;50.848;4.596;2022-11-15T00:25:42;7.90;;;5.72;;
32026;SDS011;18543;50.848;4.596;2022-11-15T00:28:09;6.13;;;5.40;;
32026;SDS011;18543;50.848;4.596;2022-11-15T00:30:36;5.88;;;5.32;;
32026;SDS011;18543;50.848;4.596;2022-11-15T00:33:03;6.38;;;5.53;;
32026;SDS011;18543;50.848;4.596;2022-11-15T00:35:31;6.68;;;5.57;;
32026;SDS011;18543;50.848;4.596;2022-11-15T00:40:26;6.28;;;5.07;;
32026;SDS011;18543;50.848;4.596;2022-11-15T00:42:53;5.93;;;5.20;;
32026;SDS011;18543;50.848;4.596;2022-11-15T00:45:20;5.50;;;5.00;;
32026;SDS011;18543;50.848;4.596;2022-11-15T00:47:47;5.97;;;5.38;;
32026;SDS011;18543;50.848;4.596;2022-11-15T00:50:14;5.82;;;5.32;;
32026;SDS011;18543;50.848;4.596;2022-11-15T00:52:41;5.82;;;5.15;;
32026;SDS011;18543;50.848;4.596;2022-11-15T00:55:09;5.93;;;5.20;;
32026;SDS011;18543;50.848;4.596;2022-11-15T00:57:43;5.88;;;5.28;;
32026;SDS011;18543;50.848;4.596;2022-11-15T01:00:11;6.00;;;4.97;;
32026;SDS011;18543;50.848;4.596;2022-11-15T01:02:38;5.70;;;5.20;;
32026;SDS011;18543;50.848;4.596;2022-11-15T01:05:05;5.63;;;5.13;;
32026;SDS011;18543;50.848;4.596;2022-11-15T01:07:32;5.38;;;4.97;;
32026;SDS011;18543;50.848;4.596;2022-11-15T01:09:59;5.82;;;5.00;;
32026;SDS011;18543;50.848;4.596;2022-11-15T01:12:29;5.80;;;5.15;;
32026;SDS011;18543;50.848;4.596;2022-11-15T01:14:56;5.72;;;5.15;;
32026;SDS011;18543;50.848;4.596;2022-11-15T01:17:23;5.82;;;5.10;;
32026;SDS011;18543;50.848;4.596;2022-11-15T01:19:50;5.70;;;5.20;;
32026;SDS011;18543;50.848;4.596;2022-11-15T01:22:16;6.53;;;5.15;;
32026;SDS011;18543;50.848;4.596;2022-11-15T01:24:43;5.93;;;5.25;;
32026;SDS011;18543;50.848;4.596;2022-11-15T01:27:10;5.85;;;5.22;;
32026;SDS011;18543;50.848;4.596;2022-11-15T01:29:37;5.38;;;4.85;;
32026;SDS011;18543;50.848;4.596;2022-11-15T01:32:04;7.22;;;5.00;;
32026;SDS011;18543;50.848;4.596;2022-11-15T01:34:30;5.65;;;4.97;;
32026;SDS011;18543;50.848;4.596;2022-11-15T01:36:57;5.65;;;5.10;;
32026;SDS011;18543;50.848;4.596;2022-11-15T01:39:24;5.60;;;4.97;;
32026;SDS011;18543;50.848;4.596;2022-11-15T01:41:52;7.63;;;5.35;;
32026;SDS011;18543;50.848;4.596;2022-11-15T01:47:14;5.47;;;4.97;;
32026;SDS011;18543;50.848;4.596;2022-11-15T01:52:18;6.20;;;5.13;;
32026;SDS011;18543;50.848;4.596;2022-11-15T01:54:48;5.40;;;4.90;;
32026;SDS011;18543;50.848;4.596;2022-11-15T01:57:18;5.65;;;5.15;;
32026;SDS011;18543;50.848;4.596;2022-11-15T01:59:47;6.13;;;5.10;;
32026;SDS011;18543;50.848;4.596;2022-11-15T02:02:14;5.03;;;4.53;;
32026;SDS011;18543;50.848;4.596;2022-11-15T02:04:45;5.70;;;5.10;;
32026;SDS011;18543;50.848;4.596;2022-11-15T02:07:14;6.38;;;5.18;;
32026;SDS011;18543;50.848;4.596;2022-11-15T02:09:44;5.70;;;5.10;;
32026;SDS011;18543;50.848;4.596;2022-11-15T02:12:13;6.80;;;4.95;;
32026;SDS011;18543;50.848;4.596;2022-11-15T02:14:46;5.80;;;5.30;;
32026;SDS011;18543;50.848;4.596;2022-11-15T02:17:38;5.75;;;4.80;;
32026;SDS011;18543;50.848;4.596;2022-11-15T02:29:03;5.70;;;5.10;;
32026;SDS011;18543;50.848;4.596;2022-11-15T02:31:57;5.47;;;4.97;;
32026;SDS011;18543;50.848;4.596;2022-11-15T02:43:13;5.30;;;4.80;;
32026;SDS011;18543;50.848;4.596;2022-11-15T02:46:12;5.85;;;4.90;;
32026;SDS011;18543;50.848;4.596;2022-11-15T02:49:10;5.90;;;4.70;;
32026;SDS011;18543;50.848;4.596;2022-11-15T02:51:39;5.63;;;5.07;;
32026;SDS011;18543;50.848;4.596;2022-11-15T02:54:12;5.40;;;4.70;;
32026;SDS011;18543;50.848;4.596;2022-11-15T02:56:43;5.43;;;4.93;;
32026;SDS011;18543;50.848;4.596;2022-11-15T02:59:58;5.60;;;4.90;;
32026;SDS011;18543;50.848;4.596;2022-11-15T03:07:26;5.30;;;4.80;;
32026;SDS011;18543;50.848;4.596;2022-11-15T03:12:37;5.55;;;4.93;;
32026;SDS011;18543;50.848;4.596;2022-11-15T03:15:21;5.70;;;5.20;;
32026;SDS011;18543;50.848;4.596;2022-11-15T03:17:55;6.45;;;4.55;;
32026;SDS011;18543;50.848;4.596;2022-11-15T03:20:27;6.32;;;4.88;;
32026;SDS011;18543;50.848;4.596;2022-11-15T03:22:56;6.22;;;4.60;;
32026;SDS011;18543;50.848;4.596;2022-11-15T03:25:27;5.22;;;4.72;;
32026;SDS011;18543;50.848;4.596;2022-11-15T03:27:57;5.05;;;4.53;;
32026;SDS011;18543;50.848;4.596;2022-11-15T03:30:28;4.97;;;4.47;;
32026;SDS011;18543;50.848;4.596;2022-11-15T03:32:58;5.53;;;4.40;;
32026;SDS011;18543;50.848;4.596;2022-11-15T03:35:29;5.03;;;4.53;;
32026;SDS011;18543;50.848;4.596;2022-11-15T03:40:38;4.90;;;4.50;;
32026;SDS011;18543;50.848;4.596;2022-11-15T03:48:32;5.35;;;4.53;;
32026;SDS011;18543;50.848;4.596;2022-11-15T03:51:02;4.95;;;4.50;;
32026;SDS011;18543;50.848;4.596;2022-11-15T03:53:30;5.32;;;4.82;;
32026;SDS011;18543;50.848;4.596;2022-11-15T03:55:58;5.18;;;4.68;;
32026;SDS011;18543;50.848;4.596;2022-11-15T03:58:25;5.45;;;4.60;;
32026;SDS011;18543;50.848;4.596;2022-11-15T04:00:51;4.88;;;4.38;;
32026;SDS011;18543;50.848;4.596;2022-11-15T04:03:18;4.65;;;4.25;;
32026;SDS011;18543;50.848;4.596;2022-11-15T04:05:45;5.05;;;4.55;;
32026;SDS011;18543;50.848;4.596;2022-11-15T04:08:12;4.80;;;4.40;;
32026;SDS011;18543;50.848;4.596;2022-11-15T04:10:38;5.13;;;4.63;;
32026;SDS011;18543;50.848;4.596;2022-11-15T04:13:05;4.95;;;4.45;;
32026;SDS011;18543;50.848;4.596;2022-11-15T04:15:32;5.20;;;4.57;;
32026;SDS011;18543;50.848;4.596;2022-11-15T04:17:59;5.18;;;4.68;;
32026;SDS011;18543;50.848;4.596;2022-11-15T04:20:27;4.70;;;4.28;;
32026;SDS011;18543;50.848;4.596;2022-11-15T04:23:15;4.70;;;4.18;;
32026;SDS011;18543;50.848;4.596;2022-11-15T04:26:07;5.10;;;4.60;;
32026;SDS011;18543;50.848;4.596;2022-11-15T04:28:37;5.20;;;4.45;;
32026;SDS011;18543;50.848;4.596;2022-11-15T04:31:26;4.72;;;4.18;;
32026;SDS011;18543;50.848;4.596;2022-11-15T04:33:54;5.70;;;4.50;;
32026;SDS011;18543;50.848;4.596;2022-11-15T04:36:21;4.60;;;4.20;;
32026;SDS011;18543;50.848;4.596;2022-11-15T04:39:07;5.38;;;4.47;;
32026;SDS011;18543;50.848;4.596;2022-11-15T04:41:34;4.90;;;4.32;;
32026;SDS011;18543;50.848;4.596;2022-11-15T04:44:00;4.88;;;4.35;;
32026;SDS011;18543;50.848;4.596;2022-11-15T04:46:27;4.38;;;3.97;;
32026;SDS011;18543;50.848;4.596;2022-11-15T04:48:54;4.60;;;4.20;;
32026;SDS011;18543;50.848;4.596;2022-11-15T04:51:24;4.68;;;4.28;;
32026;SDS011;18543;50.848;4.596;2022-11-15T04:53:51;5.07;;;4.43;;
32026;SDS011;18543;50.848;4.596;2022-11-15T04:56:18;5.00;;;4.40;;
32026;SDS011;18543;50.848;4.596;2022-11-15T04:58:48;4.70;;;4.30;;
32026;SDS011;18543;50.848;4.596;2022-11-15T05:01:15;4.47;;;4.07;;
32026;SDS011;18543;50.848;4.596;2022-11-15T05:03:42;4.57;;;4.17;;
32026;SDS011;18543;50.848;4.596;2022-11-15T05:06:29;4.70;;;4.30;;
32026;SDS011;18543;50.848;4.596;2022-11-15T05:08:56;4.80;;;4.30;;
32026;SDS011;18543;50.848;4.596;2022-11-15T05:11:24;4.25;;;3.85;;
32026;SDS011;18543;50.848;4.596;2022-11-15T05:13:50;4.82;;;4.30;;
32026;SDS011;18543;50.848;4.596;2022-11-15T05:16:17;4.32;;;3.92;;
32026;SDS011;18543;50.848;4.596;2022-11-15T05:18:46;5.35;;;4.10;;
32026;SDS011;18543;50.848;4.596;2022-11-15T05:21:16;4.53;;;4.00;;
32026;SDS011;18543;50.848;4.596;2022-11-15T05:23:43;4.38;;;3.97;;
32026;SDS011;18543;50.848;4.596;2022-11-15T05:26:10;4.35;;;3.95;;
32026;SDS011;18543;50.848;4.596;2022-11-15T05:28:38;4.30;;;3.90;;
32026;SDS011;18543;50.848;4.596;2022-11-15T05:31:23;4.50;;;4.10;;
32026;SDS011;18543;50.848;4.596;2022-11-15T05:33:51;4.50;;;3.65;;
32026;SDS011;18543;50.848;4.596;2022-11-15T05:36:33;5.53;;;4.00;;
32026;SDS011;18543;50.848;4.596;2022-11-15T05:39:04;5.47;;;4.18;;
32026;SDS011;18543;50.848;4.596;2022-11-15T05:41:42;4.20;;;3.80;;
32026;SDS011;18543;50.848;4.596;2022-11-15T05:44:14;4.40;;;4.00;;
32026;SDS011;18543;50.848;4.596;2022-11-15T05:46:44;5.05;;;4.10;;
32026;SDS011;18543;50.848;4.596;2022-11-15T05:49:12;4.20;;;3.80;;
32026;SDS011;18543;50.848;4.596;2022-11-15T05:51:42;4.07;;;3.72;;
32026;SDS011;18543;50.848;4.596;2022-11-15T05:54:10;4.63;;;3.90;;
32026;SDS011;18543;50.848;4.596;2022-11-15T05:56:37;5.20;;;3.70;;
32026;SDS011;18543;50.848;4.596;2022-11-15T05:59:05;3.90;;;3.55;;
32026;SDS011;18543;50.848;4.596;2022-11-15T06:04:00;4.47;;;3.70;;
32026;SDS011;18543;50.848;4.596;2022-11-15T06:06:27;4.00;;;3.60;;
32026;SDS011;18543;50.848;4.596;2022-11-15T06:11:22;3.92;;;3.53;;
32026;SDS011;18543;50.848;4.596;2022-11-15T06:13:48;4.20;;;3.83;;
32026;SDS011;18543;50.848;4.596;2022-11-15T06:16:15;4.25;;;3.75;;
32026;SDS011;18543;50.848;4.596;2022-11-15T06:18:42;3.83;;;3.42;;
32026;SDS011;18543;50.848;4.596;2022-11-15T06:21:09;5.50;;;3.83;;
32026;SDS011;18543;50.848;4.596;2022-11-15T06:23:35;3.85;;;3.47;;
32026;SDS011;18543;50.848;4.596;2022-11-15T06:26:04;3.83;;;3.50;;
32026;SDS011;18543;50.848;4.596;2022-11-15T06:28:31;4.25;;;3.85;;
32026;SDS011;18543;50.848;4.596;2022-11-15T06:31:03;4.13;;;3.70;;
32026;SDS011;18543;50.848;4.596;2022-11-15T06:33:31;3.75;;;3.40;;
32026;SDS011;18543;50.848;4.596;2022-11-15T06:36:02;3.88;;;3.58;;
32026;SDS011;18543;50.848;4.596;2022-11-15T06:38:30;3.63;;;3.33;;
32026;SDS011;18543;50.848;4.596;2022-11-15T06:41:04;4.18;;;3.70;;
32026;SDS011;18543;50.848;4.596;2022-11-15T06:43:33;3.92;;;3.53;;
32026;SDS011;18543;50.848;4.596;2022-11-15T06:46:01;4.07;;;3.65;;
32026;SDS011;18543;50.848;4.596;2022-11-15T06:48:29;3.95;;;3.55;;
32026;SDS011;18543;50.848;4.596;2022-11-15T06:50:58;4.00;;;3.60;;
32026;SDS011;18543;50.848;4.596;2022-11-15T06:53:26;3.50;;;3.20;;
32026;SDS011;18543;50.848;4.596;2022-11-15T06:55:57;3.88;;;3.35;;
32026;SDS011;18543;50.848;4.596;2022-11-15T07:01:03;4.63;;;3.30;;
32026;SDS011;18543;50.848;4.596;2022-11-15T07:03:33;3.80;;;3.45;;
32026;SDS011;18543;50.848;4.596;2022-11-15T07:06:01;3.50;;;3.13;;
32026;SDS011;18543;50.848;4.596;2022-11-15T07:08:33;3.97;;;3.58;;
32026;SDS011;18543;50.848;4.596;2022-11-15T07:11:01;3.42;;;3.10;;
32026;SDS011;18543;50.848;4.596;2022-11-15T07:13:30;3.65;;;3.10;;
32026;SDS011;18543;50.848;4.596;2022-11-15T07:16:05;4.00;;;3.60;;
32026;SDS011;18543;50.848;4.596;2022-11-15T07:18:34;3.38;;;3.08;;
32026;SDS011;18543;50.848;4.596;2022-11-15T07:21:05;3.70;;;3.20;;
32026;SDS011;18543;50.848;4.596;2022-11-15T07:23:38;3.78;;;3.38;;
32026;SDS011;18543;50.848;4.596;2022-11-15T07:26:06;3.38;;;3.08;;
32026;SDS011;18543;50.848;4.596;2022-11-15T07:28:34;3.20;;;2.90;;
32026;SDS011;18543;50.848;4.596;2022-11-15T07:31:05;3.78;;;3.30;;
32026;SDS011;18543;50.848;4.596;2022-11-15T07:33:34;3.30;;;3.00;;
32026;SDS011;18543;50.848;4.596;2022-11-15T07:36:02;3.90;;;3.50;;
32026;SDS011;18543;50.848;4.596;2022-11-15T07:38:30;3.90;;;3.05;;
32026;SDS011;18543;50.848;4.596;2022-11-15T07:41:03;3.50;;;3.17;;
32026;SDS011;18543;50.848;4.596;2022-11-15T07:43:30;3.47;;;3.17;;
32026;SDS011;18543;50.848;4.596;2022-11-15T07:46:04;5.38;;;3.35;;
32026;SDS011;18543;50.848;4.596;2022-11-15T07:48:33;8.95;;;3.67;;
32026;SDS011;18543;50.848;4.596;2022-11-15T07:51:10;6.80;;;3.35;;
32026;SDS011;18543;50.848;4.596;2022-11-15T07:53:42;5.82;;;3.40;;
32026;SDS011;18543;50.848;4.596;2022-11-15T07:56:10;4.53;;;3.35;;
32026;SDS011;18543;50.848;4.596;2022-11-15T07:58:37;5.45;;;3.03;;
32026;SDS011;18543;50.848;4.596;2022-11-15T08:01:05;6.80;;;3.30;;
32026;SDS011;18543;50.848;4.596;2022-11-15T08:03:34;5.50;;;3.10;;
32026;SDS011;18543;50.848;4.596;2022-11-15T08:06:01;4.05;;;3.20;;
32026;SDS011;18543;50.848;4.596;2022-11-15T08:08:31;4.97;;;3.22;;
32026;SDS011;18543;50.848;4.596;2022-11-15T08:10:58;4.18;;;2.92;;
32026;SDS011;18543;50.848;4.596;2022-11-15T08:13:25;5.28;;;2.63;;
32026;SDS011;18543;50.848;4.596;2022-11-15T08:15:59;5.32;;;2.95;;
32026;SDS011;18543;50.848;4.596;2022-11-15T08:18:28;5.47;;;2.85;;
32026;SDS011;18543;50.848;4.596;2022-11-15T08:20:57;4.53;;;3.10;;
32026;SDS011;18543;50.848;4.596;2022-11-15T08:23:26;6.40;;;3.35;;
32026;SDS011;18543;50.848;4.596;2022-11-15T08:25:58;3.13;;;2.80;;
32026;SDS011;18543;50.848;4.596;2022-11-15T08:28:29;4.07;;;2.90;;
32026;SDS011;18543;50.848;4.596;2022-11-15T08:33:24;4.43;;;3.20;;
32026;SDS011;18543;50.848;4.596;2022-11-15T08:35:51;4.18;;;2.92;;
32026;SDS011;18543;50.848;4.596;2022-11-15T08:38:18;4.07;;;2.58;;
32026;SDS011;18543;50.848;4.596;2022-11-15T08:40:45;3.92;;;2.88;;
32026;SDS011;18543;50.848;4.596;2022-11-15T08:43:12;3.08;;;2.80;;
32026;SDS011;18543;50.848;4.596;2022-11-15T08:45:39;4.65;;;2.90;;
32026;SDS011;18543;50.848;4.596;2022-11-15T08:48:06;4.30;;;3.17;;
32026;SDS011;18543;50.848;4.596;2022-11-15T08:50:33;3.90;;;2.90;;
32026;SDS011;18543;50.848;4.596;2022-11-15T08:53:04;4.45;;;2.90;;
32026;SDS011;18543;50.848;4.596;2022-11-15T08:55:32;3.22;;;2.70;;
32026;SDS011;18543;50.848;4.596;2022-11-15T08:58:03;4.82;;;2.67;;
32026;SDS011;18543;50.848;4.596;2022-11-15T09:00:30;3.93;;;2.73;;
32026;SDS011;18543;50.848;4.596;2022-11-15T09:02:57;3.67;;;2.65;;
32026;SDS011;18543;50.848;4.596;2022-11-15T09:05:25;2.85;;;2.55;;
32026;SDS011;18543;50.848;4.596;2022-11-15T09:07:53;3.17;;;2.88;;
32026;SDS011;18543;50.848;4.596;2022-11-15T09:10:21;4.93;;;2.90;;
32026;SDS011;18543;50.848;4.596;2022-11-15T09:12:49;5.95;;;2.85;;
32026;SDS011;18543;50.848;4.596;2022-11-15T09:15:16;5.77;;;2.57;;
32026;SDS011;18543;50.848;4.596;2022-11-15T09:17:44;4.68;;;2.80;;
32026;SDS011;18543;50.848;4.596;2022-11-15T09:20:10;6.30;;;2.65;;
32026;SDS011;18543;50.848;4.596;2022-11-15T09:22:38;6.57;;;2.80;;
32026;SDS011;18543;50.848;4.596;2022-11-15T09:25:05;4.22;;;2.90;;
32026;SDS011;18543;50.848;4.596;2022-11-15T09:27:36;2.72;;;2.50;;
32026;SDS011;18543;50.848;4.596;2022-11-15T09:30:03;4.40;;;2.88;;
32026;SDS011;18543;50.848;4.596;2022-11-15T09:32:31;6.00;;;2.50;;
32026;SDS011;18543;50.848;4.596;2022-11-15T09:35:04;3.33;;;2.50;;
32026;SDS011;18543;50.848;4.596;2022-11-15T09:37:31;4.57;;;2.65;;
32026;SDS011;18543;50.848;4.596;2022-11-15T09:39:58;5.60;;;2.90;;
32026;SDS011;18543;50.848;4.596;2022-11-15T09:45:20;4.03;;;2.47;;
32026;SDS011;18543;50.848;4.596;2022-11-15T09:50:38;8.57;;;2.70;;
32026;SDS011;18543;50.848;4.596;2022-11-15T09:53:48;7.20;;;1.90;;
32026;SDS011;18543;50.848;4.596;2022-11-15T09:56:38;6.43;;;2.15;;
32026;SDS011;18543;50.848;4.596;2022-11-15T10:04:35;4.88;;;2.85;;
32026;SDS011;18543;50.848;4.596;2022-11-15T10:09:33;8.80;;;2.70;;
32026;SDS011;18543;50.848;4.596;2022-11-15T10:12:08;5.40;;;2.35;;
32026;SDS011;18543;50.848;4.596;2022-11-15T10:14:39;5.65;;;2.65;;
32026;SDS011;18543;50.848;4.596;2022-11-15T10:17:09;7.57;;;2.70;;
32026;SDS011;18543;50.848;4.596;2022-11-15T10:23:01;6.70;;;2.60;;
32026;SDS011;18543;50.848;4.596;2022-11-15T10:25:33;5.50;;;2.42;;
32026;SDS011;18543;50.848;4.596;2022-11-15T10:30:38;4.47;;;2.45;;
32026;SDS011;18543;50.848;4.596;2022-11-15T10:36:21;4.93;;;2.45;;
32026;SDS011;18543;50.848;4.596;2022-11-15T10:46:38;6.97;;;2.60;;
32026;SDS011;18543;50.848;4.596;2022-11-15T10:49:18;6.68;;;2.60;;
32026;SDS011;18543;50.848;4.596;2022-11-15T10:54:23;6.93;;;2.25;;
32026;SDS011;18543;50.848;4.596;2022-11-15T10:57:12;8.73;;;2.38;;
32026;SDS011;18543;50.848;4.596;2022-11-15T10:59:45;7.07;;;1.92;;
32026;SDS011;18543;50.848;4.596;2022-11-15T11:02:27;7.10;;;2.08;;
32026;SDS011;18543;50.848;4.596;2022-11-15T11:05:00;6.53;;;2.20;;
32026;SDS011;18543;50.848;4.596;2022-11-15T11:07:33;6.53;;;2.00;;
32026;SDS011;18543;50.848;4.596;2022-11-15T11:10:18;4.93;;;2.00;;
32026;SDS011;18543;50.848;4.596;2022-11-15T11:13:14;9.48;;;2.20;;
32026;SDS011;18543;50.848;4.596;2022-11-15T11:15:47;6.82;;;1.95;;
32026;SDS011;18543;50.848;4.596;2022-11-15T11:27:43;3.65;;;1.83;;
32026;SDS011;18543;50.848;4.596;2022-11-15T11:47:06;10.30;;;2.40;;
32026;SDS011;18543;50.848;4.596;2022-11-15T11:49:45;10.93;;;2.20;;
32026;SDS011;18543;50.848;4.596;2022-11-15T11:52:38;11.40;;;2.67;;
32026;SDS011;18543;50.848;4.596;2022-11-15T11:55:40;11.13;;;2.40;;
32026;SDS011;18543;50.848;4.596;2022-11-15T11:58:13;9.60;;;2.10;;
32026;SDS011;18543;50.848;4.596;2022-11-15T12:00:52;9.32;;;2.60;;
32026;SDS011;18543;50.848;4.596;2022-11-15T12:03:34;13.00;;;2.50;;
32026;SDS011;18543;50.848;4.596;2022-11-15T12:06:30;13.55;;;2.25;;
32026;SDS011;18543;50.848;4.596;2022-11-15T12:14:20;7.72;;;1.90;;
32026;SDS011;18543;50.848;4.596;2022-11-15T12:17:00;7.43;;;2.20;;
32026;SDS011;18543;50.848;4.596;2022-11-15T12:19:28;9.85;;;2.20;;
32026;SDS011;18543;50.848;4.596;2022-11-15T12:24:32;8.60;;;2.05;;
32026;SDS011;18543;50.848;4.596;2022-11-15T12:27:12;10.35;;;2.47;;
32026;SDS011;18543;50.848;4.596;2022-11-15T12:29:52;12.98;;;2.22;;
32026;SDS011;18543;50.848;4.596;2022-11-15T12:34:55;11.90;;;1.95;;
32026;SDS011;18543;50.848;4.596;2022-11-15T12:48:45;8.68;;;1.88;;
32026;SDS011;18543;50.848;4.596;2022-11-15T12:51:03;6.97;;;2.00;;
32026;SDS011;18543;50.848;4.596;2022-11-15T12:53:32;8.52;;;1.98;;
32026;SDS011;18543;50.848;4.596;2022-11-15T12:58:49;9.18;;;2.25;;
32026;SDS011;18543;50.848;4.596;2022-11-15T13:06:46;6.88;;;1.88;;
32026;SDS011;18543;50.848;4.596;2022-11-15T13:15:01;7.18;;;2.00;;
32026;SDS011;18543;50.848;4.596;2022-11-15T13:17:45;3.55;;;1.65;;
32026;SDS011;18543;50.848;4.596;2022-11-15T13:22:44;7.57;;;1.70;;
32026;SDS011;18543;50.848;4.596;2022-11-15T13:30:50;5.15;;;1.80;;
32026;SDS011;18543;50.848;4.596;2022-11-15T13:33:26;6.07;;;2.00;;
32026;SDS011;18543;50.848;4.596;2022-11-15T13:36:03;5.35;;;1.92;;
32026;SDS011;18543;50.848;4.596;2022-11-15T13:38:35;7.55;;;1.73;;
32026;SDS011;18543;50.848;4.596;2022-11-15T13:41:20;4.85;;;1.63;;
32026;SDS011;18543;50.848;4.596;2022-11-15T13:43:49;8.10;;;1.90;;
32026;SDS011;18543;50.848;4.596;2022-11-15T13:48:53;4.53;;;1.75;;
32026;SDS011;18543;50.848;4.596;2022-11-15T13:52:02;6.68;;;1.80;;
32026;SDS011;18543;50.848;4.596;2022-11-15T13:57:01;5.45;;;1.98;;
32026;SDS011;18543;50.848;4.596;2022-11-15T13:59:36;5.20;;;1.83;;
32026;SDS011;18543;50.848;4.596;2022-11-15T14:02:12;5.15;;;1.73;;
32026;SDS011;18543;50.848;4.596;2022-11-15T14:04:51;5.45;;;1.70;;
32026;SDS011;18543;50.848;4.596;2022-11-15T14:07:25;3.70;;;1.60;;
32026;SDS011;18543;50.848;4.596;2022-11-15T14:09:54;5.20;;;1.90;;
32026;SDS011;18543;50.848;4.596;2022-11-15T14:12:22;6.03;;;1.60;;
32026;SDS011;18543;50.848;4.596;2022-11-15T14:15:02;5.13;;;1.77;;
32026;SDS011;18543;50.848;4.596;2022-11-15T14:17:49;5.18;;;1.80;;
32026;SDS011;18543;50.848;4.596;2022-11-15T14:20:36;2.80;;;1.58;;
32026;SDS011;18543;50.848;4.596;2022-11-15T14:23:24;3.35;;;1.58;;
32026;SDS011;18543;50.848;4.596;2022-11-15T14:25:55;3.15;;;1.70;;
32026;SDS011;18543;50.848;4.596;2022-11-15T14:30:51;5.38;;;1.50;;
32026;SDS011;18543;50.848;4.596;2022-11-15T14:33:21;4.80;;;1.65;;
32026;SDS011;18543;50.848;4.596;2022-11-15T14:35:51;6.93;;;1.90;;
32026;SDS011;18543;50.848;4.596;2022-11-15T14:38:18;3.53;;;1.65;;
32026;SDS011;18543;50.848;4.596;2022-11-15T14:40:45;4.07;;;1.75;;
32026;SDS011;18543;50.848;4.596;2022-11-15T14:43:13;6.55;;;1.77;;
32026;SDS011;18543;50.848;4.596;2022-11-15T14:45:40;6.80;;;1.63;;
32026;SDS011;18543;50.848;4.596;2022-11-15T14:48:07;7.22;;;1.80;;
32026;SDS011;18543;50.848;4.596;2022-11-15T14:50:34;3.60;;;1.77;;
32026;SDS011;18543;50.848;4.596;2022-11-15T14:53:02;4.93;;;1.70;;
32026;SDS011;18543;50.848;4.596;2022-11-15T14:55:33;6.78;;;1.58;;
32026;SDS011;18543;50.848;4.596;2022-11-15T14:58:02;4.28;;;1.50;;
32026;SDS011;18543;50.848;4.596;2022-11-15T15:00:31;4.70;;;1.70;;
32026;SDS011;18543;50.848;4.596;2022-11-15T15:03:01;10.93;;;1.90;;
32026;SDS011;18543;50.848;4.596;2022-11-15T15:05:33;5.32;;;1.80;;
32026;SDS011;18543;50.848;4.596;2022-11-15T15:08:07;10.25;;;1.83;;
32026;SDS011;18543;50.848;4.596;2022-11-15T15:13:20;7.43;;;2.28;;
32026;SDS011;18543;50.848;4.596;2022-11-15T15:15:49;6.88;;;1.80;;
32026;SDS011;18543;50.848;4.596;2022-11-15T15:18:17;8.98;;;2.00;;
32026;SDS011;18543;50.848;4.596;2022-11-15T15:20:57;9.50;;;1.92;;
32026;SDS011;18543;50.848;4.596;2022-11-15T15:23:33;7.53;;;1.95;;
32026;SDS011;18543;50.848;4.596;2022-11-15T15:26:01;5.65;;;1.60;;
32026;SDS011;18543;50.848;4.596;2022-11-15T15:28:29;4.25;;;1.73;;
32026;SDS011;18543;50.848;4.596;2022-11-15T15:31:00;5.80;;;1.60;;
32026;SDS011;18543;50.848;4.596;2022-11-15T15:33:29;5.80;;;1.70;;
32026;SDS011;18543;50.848;4.596;2022-11-15T15:35:59;7.20;;;2.30;;
32026;SDS011;18543;50.848;4.596;2022-11-15T15:38:25;4.97;;;1.73;;
32026;SDS011;18543;50.848;4.596;2022-11-15T15:40:52;10.57;;;1.88;;
32026;SDS011;18543;50.848;4.596;2022-11-15T15:43:19;7.63;;;2.00;;
32026;SDS011;18543;50.848;4.596;2022-11-15T15:45:47;8.40;;;2.27;;
32026;SDS011;18543;50.848;4.596;2022-11-15T15:48:14;5.93;;;1.95;;
32026;SDS011;18543;50.848;4.596;2022-11-15T15:50:43;5.15;;;1.95;;
32026;SDS011;18543;50.848;4.596;2022-11-15T15:53:10;7.97;;;2.67;;
32026;SDS011;18543;50.848;4.596;2022-11-15T15:55:38;4.30;;;2.45;;
32026;SDS011;18543;50.848;4.596;2022-11-15T15:58:05;8.73;;;2.40;;
32026;SDS011;18543;50.848;4.596;2022-11-15T16:00:35;6.97;;;2.20;;
32026;SDS011;18543;50.848;4.596;2022-11-15T16:03:03;8.32;;;2.47;;
32026;SDS011;18543;50.848;4.596;2022-11-15T16:05:29;5.05;;;2.20;;
32026;SDS011;18543;50.848;4.596;2022-11-15T16:07:56;10.40;;;2.53;;
32026;SDS011;18543;50.848;4.596;2022-11-15T16:10:24;8.70;;;2.17;;
32026;SDS011;18543;50.848;4.596;2022-11-15T16:12:53;7.57;;;2.63;;
32026;SDS011;18543;50.848;4.596;2022-11-15T16:15:21;7.00;;;2.20;;
32026;SDS011;18543;50.848;4.596;2022-11-15T16:17:55;6.18;;;2.30;;
32026;SDS011;18543;50.848;4.596;2022-11-15T16:22:56;8.05;;;2.38;;
32026;SDS011;18543;50.848;4.596;2022-11-15T16:25:23;8.02;;;2.30;;
32026;SDS011;18543;50.848;4.596;2022-11-15T16:27:51;7.97;;;2.10;;
32026;SDS011;18543;50.848;4.596;2022-11-15T16:30:19;9.85;;;2.15;;
32026;SDS011;18543;50.848;4.596;2022-11-15T16:32:48;6.90;;;1.95;;
32026;SDS011;18543;50.848;4.596;2022-11-15T16:35:15;7.03;;;2.25;;
32026;SDS011;18543;50.848;4.596;2022-11-15T16:37:43;6.43;;;2.15;;
32026;SDS011;18543;50.848;4.596;2022-11-15T16:40:28;7.13;;;2.03;;
32026;SDS011;18543;50.848;4.596;2022-11-15T16:42:57;7.43;;;1.80;;
32026;SDS011;18543;50.848;4.596;2022-11-15T16:45:25;5.07;;;2.00;;
32026;SDS011;18543;50.848;4.596;2022-11-15T16:47:54;3.65;;;2.15;;
32026;SDS011;18543;50.848;4.596;2022-11-15T16:50:23;3.95;;;2.05;;
32026;SDS011;18543;50.848;4.596;2022-11-15T16:52:53;6.13;;;2.13;;
32026;SDS011;18543;50.848;4.596;2022-11-15T16:55:21;4.78;;;2.30;;
32026;SDS011;18543;50.848;4.596;2022-11-15T16:57:50;5.05;;;2.05;;
32026;SDS011;18543;50.848;4.596;2022-11-15T17:00:18;5.10;;;2.20;;
32026;SDS011;18543;50.848;4.596;2022-11-15T17:02:46;5.30;;;1.80;;
32026;SDS011;18543;50.848;4.596;2022-11-15T17:05:15;2.88;;;1.80;;
32026;SDS011;18543;50.848;4.596;2022-11-15T17:07:47;6.82;;;2.20;;
32026;SDS011;18543;50.848;4.596;2022-11-15T17:10:15;3.45;;;1.70;;
32026;SDS011;18543;50.848;4.596;2022-11-15T17:12:43;5.57;;;2.15;;
32026;SDS011;18543;50.848;4.596;2022-11-15T17:15:10;4.03;;;2.17;;
32026;SDS011;18543;50.848;4.596;2022-11-15T17:20:05;3.40;;;1.90;;
32026;SDS011;18543;50.848;4.596;2022-11-15T17:22:38;5.05;;;1.92;;
32026;SDS011;18543;50.848;4.596;2022-11-15T17:25:05;3.03;;;1.73;;
32026;SDS011;18543;50.848;4.596;2022-11-15T17:27:32;5.30;;;1.90;;
32026;SDS011;18543;50.848;4.596;2022-11-15T17:29:59;7.07;;;1.90;;
32026;SDS011;18543;50.848;4.596;2022-11-15T17:32:26;4.75;;;1.85;;
32026;SDS011;18543;50.848;4.596;2022-11-15T17:34:52;7.35;;;2.15;;
32026;SDS011;18543;50.848;4.596;2022-11-15T17:37:20;3.33;;;1.70;;
32026;SDS011;18543;50.848;4.596;2022-11-15T17:39:46;3.88;;;1.80;;
32026;SDS011;18543;50.848;4.596;2022-11-15T17:42:13;4.03;;;2.10;;
32026;SDS011;18543;50.848;4.596;2022-11-15T17:44:40;5.97;;;2.15;;
32026;SDS011;18543;50.848;4.596;2022-11-15T17:47:07;6.55;;;2.00;;
32026;SDS011;18543;50.848;4.596;2022-11-15T17:49:33;4.78;;;1.90;;
32026;SDS011;18543;50.848;4.596;2022-11-15T17:52:06;3.00;;;1.90;;
32026;SDS011;18543;50.848;4.596;2022-11-15T17:54:33;4.18;;;1.90;;
32026;SDS011;18543;50.848;4.596;2022-11-15T17:57:00;4.65;;;2.10;;
32026;SDS011;18543;50.848;4.596;2022-11-15T17:59:26;4.72;;;2.00;;